createdAt,value
2018-06-09T00:00:30.760Z,22.19
2018-06-09T00:01:30.801Z,22.16
2018-06-09T00:02:32.052Z,22.18
2018-06-09T00:03:30.656Z,22.18
2018-06-09T00:04:30.723Z,22.16
2018-06-09T00:05:30.834Z,22.16
2018-06-09T00:06:30.797Z,22.18
2018-06-09T00:07:32.130Z,22.19
2018-06-09T00:08:30.420Z,22.18
2018-06-09T00:09:30.881Z,22.15
2018-06-09T00:10:32.091Z,22.19
2018-06-09T00:11:30.802Z,22.16
2018-06-09T00:12:31.794Z,22.16
2018-06-09T00:13:30.811Z,22.16
2018-06-09T00:14:30.848Z,22.16
2018-06-09T00:15:30.722Z,22.18
2018-06-09T00:16:30.601Z,22.18
2018-06-09T00:17:30.751Z,22.16
2018-06-09T00:18:30.914Z,22.16
2018-06-09T00:19:31.046Z,22.16
2018-06-09T00:20:30.848Z,22.18
2018-06-09T00:21:30.476Z,22.16
2018-06-09T00:22:32.106Z,22.18
2018-06-09T00:23:30.693Z,22.16
2018-06-09T00:24:30.501Z,22.16
2018-06-09T00:25:31.429Z,22.18
2018-06-09T00:26:30.757Z,22.18
2018-06-09T00:27:30.802Z,22.16
2018-06-09T00:28:30.933Z,22.18
2018-06-09T00:29:30.918Z,22.13
2018-06-09T00:30:30.623Z,22.15
2018-06-09T00:31:30.624Z,22.16
2018-06-09T00:32:30.602Z,22.15
2018-06-09T00:33:30.879Z,22.16
2018-06-09T00:34:30.744Z,22.18
2018-06-09T00:35:30.871Z,22.16
2018-06-09T00:36:30.709Z,22.16
2018-06-09T00:37:30.870Z,22.16
2018-06-09T00:38:30.232Z,22.18
2018-06-09T00:39:29.927Z,22.16
2018-06-09T00:40:30.822Z,22.18
2018-06-09T00:41:30.037Z,22.16
2018-06-09T00:42:30.100Z,22.16
2018-06-09T00:43:30.162Z,22.16
2018-06-09T00:44:30.021Z,22.16
2018-06-09T00:45:30.899Z,22.13
2018-06-09T00:46:30.997Z,22.18
2018-06-09T00:47:30.153Z,22.16
2018-06-09T00:48:30.140Z,22.18
2018-06-09T00:49:31.686Z,22.18
2018-06-09T00:50:30.232Z,22.15
2018-06-09T00:51:30.676Z,22.18
2018-06-09T00:52:30.094Z,22.16
2018-06-09T00:53:30.018Z,22.15
2018-06-09T00:54:30.095Z,22.16
2018-06-09T00:55:29.986Z,22.16
2018-06-09T00:56:29.974Z,22.13
2018-06-09T00:57:29.997Z,22.15
2018-06-09T00:58:30.073Z,22.15
2018-06-09T00:59:30.169Z,22.15
2018-06-09T01:00:29.951Z,22.13
2018-06-09T01:01:29.960Z,22.16
2018-06-09T01:02:30.192Z,22.15
2018-06-09T01:03:30.084Z,22.13
2018-06-09T01:04:30.497Z,22.13
2018-06-09T01:05:29.926Z,22.15
2018-06-09T01:06:30.083Z,22.16
2018-06-09T01:07:30.000Z,22.15
2018-06-09T01:08:30.119Z,22.16
2018-06-09T01:09:30.189Z,22.13
2018-06-09T01:10:30.015Z,22.13
2018-06-09T01:11:46.533Z,22.15
2018-06-09T01:12:29.926Z,22.13
2018-06-09T01:13:30.146Z,22.12
2018-06-09T01:14:29.955Z,22.13
2018-06-09T01:15:30.244Z,22.13
2018-06-09T01:16:29.885Z,22.13
2018-06-09T01:17:29.981Z,22.13
2018-06-09T01:18:30.171Z,22.13
2018-06-09T01:19:30.065Z,22.13
2018-06-09T01:20:30.052Z,22.13
2018-06-09T01:21:30.756Z,22.16
2018-06-09T01:22:30.090Z,22.13
2018-06-09T01:23:29.935Z,22.11
2018-06-09T01:24:29.996Z,22.12
2018-06-09T01:25:30.128Z,22.13
2018-06-09T01:26:30.226Z,22.12
2018-06-09T01:27:30.062Z,22.13
2018-06-09T01:28:39.998Z,22.15
2018-06-09T01:29:29.981Z,22.16
2018-06-09T01:30:30.159Z,22.12
2018-06-09T01:31:30.112Z,22.13
2018-06-09T01:32:30.175Z,22.13
2018-06-09T01:33:30.090Z,22.12
2018-06-09T01:34:30.112Z,22.12
2018-06-09T01:35:30.116Z,22.12
2018-06-09T01:36:30.065Z,22.13
2018-06-09T01:37:30.112Z,22.13
2018-06-09T01:38:30.332Z,22.11
2018-06-09T01:39:30.039Z,22.11
2018-06-09T01:40:30.070Z,22.12
2018-06-09T01:41:30.068Z,22.13
2018-06-09T01:42:30.144Z,22.13
2018-06-09T01:43:30.247Z,22.13
2018-06-09T01:44:32.668Z,22.13
2018-06-09T01:45:30.129Z,22.13
2018-06-09T01:46:30.071Z,22.11
2018-06-09T01:47:30.101Z,22.12
2018-06-09T01:48:30.036Z,22.12
2018-06-09T01:49:30.066Z,22.13
2018-06-09T01:50:30.216Z,22.12
2018-06-09T01:51:30.064Z,22.13
2018-06-09T01:52:30.037Z,22.13
2018-06-09T01:53:30.207Z,22.15
2018-06-09T01:54:30.116Z,22.11
2018-06-09T01:55:30.052Z,22.13
2018-06-09T01:56:30.136Z,22.13
2018-06-09T01:57:30.199Z,22.12
2018-06-09T01:58:30.054Z,22.11
2018-06-09T01:59:32.703Z,22.12
2018-06-09T02:00:30.281Z,22.12
2018-06-09T02:01:30.042Z,22.12
2018-06-09T02:02:30.145Z,22.12
2018-06-09T02:03:30.181Z,22.11
2018-06-09T02:04:30.185Z,22.12
2018-06-09T02:05:32.704Z,22.12
2018-06-09T02:06:30.164Z,22.12
2018-06-09T02:07:30.207Z,22.12
2018-06-09T02:08:30.180Z,22.13
2018-06-09T02:09:30.363Z,22.11
2018-06-09T02:10:30.055Z,22.12
2018-06-09T02:11:30.090Z,22.11
2018-06-09T02:12:32.469Z,22.09
2018-06-09T02:13:30.225Z,22.12
2018-06-09T02:14:30.418Z,22.13
2018-06-09T02:15:30.126Z,22.11
2018-06-09T02:16:30.057Z,22.11
2018-06-09T02:17:30.063Z,22.11
2018-06-09T02:18:30.091Z,22.11
2018-06-09T02:19:30.166Z,22.12
2018-06-09T02:20:30.166Z,22.12
2018-06-09T02:21:30.202Z,22.11
2018-06-09T02:22:30.141Z,22.09
2018-06-09T02:23:30.267Z,22.13
2018-06-09T02:24:32.670Z,22.12
2018-06-09T02:25:30.083Z,22.09
2018-06-09T02:26:30.159Z,22.11
2018-06-09T02:27:30.180Z,22.09
2018-06-09T02:28:30.093Z,22.12
2018-06-09T02:29:30.085Z,22.11
2018-06-09T02:30:30.192Z,22.12
2018-06-09T02:31:30.262Z,22.12
2018-06-09T02:32:32.704Z,22.12
2018-06-09T02:33:30.192Z,22.09
2018-06-09T02:34:30.165Z,22.12
2018-06-09T02:35:30.144Z,22.11
2018-06-09T02:36:30.103Z,22.13
2018-06-09T02:37:30.192Z,22.12
2018-06-09T02:38:30.062Z,22.11
2018-06-09T02:39:30.391Z,22.11
2018-06-09T02:40:30.329Z,22.11
2018-06-09T02:41:30.284Z,22.11
2018-06-09T02:42:30.508Z,22.11
2018-06-09T02:43:30.435Z,22.08
2018-06-09T02:44:30.362Z,22.11
2018-06-09T02:45:30.364Z,22.08
2018-06-09T02:46:30.682Z,22.11
2018-06-09T02:47:30.711Z,22.09
2018-06-09T02:48:30.288Z,22.09
2018-06-09T02:49:30.344Z,22.09
2018-06-09T02:50:30.651Z,22.06
2018-06-09T02:51:30.474Z,22.09
2018-06-09T02:52:30.295Z,22.08
2018-06-09T02:53:30.963Z,22.08
2018-06-09T02:54:30.293Z,22.08
2018-06-09T02:55:30.374Z,22.09
2018-06-09T02:56:30.472Z,22.12
2018-06-09T02:57:30.361Z,22.08
2018-06-09T02:58:30.477Z,22.08
2018-06-09T02:59:30.328Z,22.06
2018-06-09T03:00:30.381Z,22.09
2018-06-09T03:01:30.309Z,22.09
2018-06-09T03:02:30.483Z,22.11
2018-06-09T03:03:30.618Z,22.08
2018-06-09T03:04:30.331Z,22.09
2018-06-09T03:05:30.299Z,22.08
2018-06-09T03:06:30.591Z,22.09
2018-06-09T03:07:30.650Z,22.06
2018-06-09T03:08:30.406Z,22.08
2018-06-09T03:09:30.352Z,22.11
2018-06-09T03:10:30.392Z,22.11
2018-06-09T03:11:30.646Z,22.09
2018-06-09T03:12:30.661Z,22.08
2018-06-09T03:13:30.567Z,22.09
2018-06-09T03:14:30.659Z,22.11
2018-06-09T03:15:30.312Z,22.08
2018-06-09T03:16:30.162Z,22.08
2018-06-09T03:17:31.079Z,22.08
2018-06-09T03:18:32.319Z,22.06
2018-06-09T03:19:30.372Z,22.09
2018-06-09T03:20:30.573Z,22.08
2018-06-09T03:21:30.574Z,22.08
2018-06-09T03:22:30.660Z,22.06
2018-06-09T03:23:30.370Z,22.08
2018-06-09T03:24:30.625Z,22.06
2018-06-09T03:25:30.417Z,22.09
2018-06-09T03:26:30.459Z,22.09
2018-06-09T03:27:31.006Z,22.09
2018-06-09T03:28:32.757Z,22.09
2018-06-09T03:29:30.978Z,22.08
2018-06-09T03:30:30.247Z,22.06
2018-06-09T03:31:32.507Z,22.08
2018-06-09T03:32:30.603Z,22.09
2018-06-09T03:33:30.592Z,22.05
2018-06-09T03:34:30.358Z,22.08
2018-06-09T03:35:30.615Z,22.08
2018-06-09T03:36:30.424Z,22.08
2018-06-09T03:37:30.356Z,22.04
2018-06-09T03:38:30.192Z,22.08
2018-06-09T03:39:30.056Z,22.08
2018-06-09T03:40:30.061Z,22.06
2018-06-09T03:41:30.185Z,22.06
2018-06-09T03:42:30.007Z,22.06
2018-06-09T03:43:30.046Z,22.06
2018-06-09T03:44:29.957Z,22.08
2018-06-09T03:45:29.986Z,22.06
2018-06-09T03:46:29.951Z,22.08
2018-06-09T03:47:30.080Z,22.09
2018-06-09T03:48:29.989Z,22.06
2018-06-09T03:49:30.141Z,22.09
2018-06-09T03:50:30.286Z,22.09
2018-06-09T03:51:30.951Z,22.09
2018-06-09T03:52:29.990Z,22.06
2018-06-09T03:53:29.946Z,22.08
2018-06-09T03:54:30.125Z,22.05
2018-06-09T03:55:30.109Z,22.09
2018-06-09T03:56:30.094Z,22.06
2018-06-09T03:57:30.170Z,22.08
2018-06-09T03:58:30.024Z,22.08
2018-06-09T03:59:29.930Z,22.06
2018-06-09T04:00:30.071Z,22.08
2018-06-09T04:01:30.055Z,22.06
2018-06-09T04:02:30.085Z,22.04
2018-06-09T04:03:29.987Z,22.06
2018-06-09T04:04:29.794Z,22.06
2018-06-09T04:05:30.152Z,22.08
2018-06-09T04:06:30.094Z,22.08
2018-06-09T04:07:30.132Z,22.06
2018-06-09T04:08:30.176Z,22.08
2018-06-09T04:09:30.153Z,22.06
2018-06-09T04:10:29.950Z,22.06
2018-06-09T04:11:30.195Z,22.06
2018-06-09T04:12:30.033Z,22.06
2018-06-09T04:13:29.979Z,22.06
2018-06-09T04:14:29.930Z,22.06
2018-06-09T04:15:29.975Z,22.05
2018-06-09T04:16:30.140Z,22.08
2018-06-09T04:17:30.007Z,22.08
2018-06-09T04:18:30.120Z,22.05
2018-06-09T04:19:30.073Z,22.06
2018-06-09T04:20:30.151Z,22.06
2018-06-09T04:21:29.923Z,22.05
2018-06-09T04:22:29.898Z,22.06
2018-06-09T04:23:30.127Z,22.06
2018-06-09T04:24:29.889Z,22.05
2018-06-09T04:25:29.941Z,22.05
2018-06-09T04:26:29.956Z,22.05
2018-06-09T04:27:30.018Z,22.08
2018-06-09T04:28:30.039Z,22.05
2018-06-09T04:29:29.965Z,22.05
2018-06-09T04:30:29.965Z,22.05
2018-06-09T04:31:30.061Z,22.05
2018-06-09T04:32:29.977Z,22.06
2018-06-09T04:33:29.926Z,22.05
2018-06-09T04:34:29.996Z,22.05
2018-06-09T04:35:30.115Z,22.05
2018-06-09T04:36:29.998Z,22.05
2018-06-09T04:37:30.058Z,22.05
2018-06-09T04:38:31.445Z,22.06
2018-06-09T04:39:30.034Z,22.06
2018-06-09T04:40:29.924Z,22.08
2018-06-09T04:41:29.964Z,22.06
2018-06-09T04:42:30.318Z,22.05
2018-06-09T04:43:30.037Z,22.06
2018-06-09T04:44:30.059Z,22.06
2018-06-09T04:45:30.120Z,22.05
2018-06-09T04:46:30.172Z,22.05
2018-06-09T04:47:30.058Z,22.06
2018-06-09T04:48:30.095Z,22.04
2018-06-09T04:49:29.977Z,22.05
2018-06-09T04:50:30.141Z,22.05
2018-06-09T04:51:29.996Z,22.06
2018-06-09T04:52:30.103Z,22.04
2018-06-09T04:53:30.088Z,22.04
2018-06-09T04:54:29.995Z,22.09
2018-06-09T04:55:46.596Z,22.05
2018-06-09T04:56:30.121Z,22.06
2018-06-09T04:57:29.945Z,22.04
2018-06-09T04:58:30.321Z,22.06
2018-06-09T04:59:30.145Z,22.05
2018-06-09T05:00:29.963Z,22.04
2018-06-09T05:01:30.046Z,22.05
2018-06-09T05:02:30.055Z,22.05
2018-06-09T05:03:29.991Z,22.04
2018-06-09T05:04:29.932Z,22.04
2018-06-09T05:05:30.036Z,22.05
2018-06-09T05:06:29.854Z,22.06
2018-06-09T05:07:30.073Z,22.08
2018-06-09T05:08:29.929Z,22.06
2018-06-09T05:09:30.133Z,22.05
2018-06-09T05:10:30.098Z,22.04
2018-06-09T05:11:29.949Z,22.08
2018-06-09T05:12:39.883Z,22.04
2018-06-09T05:13:29.959Z,22.05
2018-06-09T05:14:29.915Z,22.05
2018-06-09T05:15:29.986Z,22.04
2018-06-09T05:16:29.997Z,22.04
2018-06-09T05:17:29.894Z,22.05
2018-06-09T05:18:30.010Z,22.06
2018-06-09T05:19:30.078Z,22.05
2018-06-09T05:20:30.013Z,22.05
2018-06-09T05:21:30.138Z,22.04
2018-06-09T05:22:30.032Z,22.06
2018-06-09T05:23:29.966Z,22.06
2018-06-09T05:24:29.933Z,22.04
2018-06-09T05:25:29.996Z,22.05
2018-06-09T05:26:30.077Z,22.05
2018-06-09T05:27:30.068Z,22.04
2018-06-09T05:28:29.923Z,22.05
2018-06-09T05:29:30.085Z,22.05
2018-06-09T05:30:29.909Z,22.06
2018-06-09T05:31:29.903Z,22.05
2018-06-09T05:32:29.908Z,22.06
2018-06-09T05:33:29.933Z,22.04
2018-06-09T05:34:29.966Z,22.06
2018-06-09T05:35:29.875Z,22.06
2018-06-09T05:36:30.112Z,22.05
2018-06-09T05:37:30.027Z,22.05
2018-06-09T05:38:30.091Z,22.05
2018-06-09T05:39:29.998Z,22.04
2018-06-09T05:40:30.075Z,22.02
2018-06-09T05:41:30.117Z,22.05
2018-06-09T05:42:30.030Z,22.04
2018-06-09T05:43:30.018Z,22.05
2018-06-09T05:44:29.949Z,22.05
2018-06-09T05:45:30.048Z,22.04
2018-06-09T05:46:29.856Z,22.02
2018-06-09T05:47:29.891Z,22.08
2018-06-09T05:48:30.011Z,22.06
2018-06-09T05:49:30.710Z,22.05
2018-06-09T05:50:30.076Z,22.05
2018-06-09T05:51:30.090Z,22.04
2018-06-09T05:52:30.098Z,22.04
2018-06-09T05:53:29.994Z,22.06
2018-06-09T05:54:29.997Z,22.04
2018-06-09T05:55:30.205Z,22.05
2018-06-09T05:56:30.195Z,22.04
2018-06-09T05:57:39.984Z,22.05
2018-06-09T05:58:30.121Z,22.05
2018-06-09T05:59:30.104Z,22.05
2018-06-09T06:00:30.056Z,22.04
2018-06-09T06:01:30.015Z,22.05
2018-06-09T06:02:29.872Z,22.02
2018-06-09T06:03:29.837Z,22.02
2018-06-09T06:04:30.042Z,22.05
2018-06-09T06:05:30.113Z,22.06
2018-06-09T06:06:30.091Z,22.05
2018-06-09T06:07:30.038Z,22.04
2018-06-09T06:08:30.115Z,22.06
2018-06-09T06:09:30.098Z,22.06
2018-06-09T06:10:30.048Z,22.05
2018-06-09T06:11:29.841Z,22.05
2018-06-09T06:12:30.075Z,22.06
2018-06-09T06:13:30.126Z,22.06
2018-06-09T06:14:30.205Z,22.04
2018-06-09T06:15:30.170Z,22.08
2018-06-09T06:16:29.990Z,22.06
2018-06-09T06:17:29.987Z,22.04
2018-06-09T06:18:30.141Z,22.06
2018-06-09T06:19:30.233Z,22.04
2018-06-09T06:20:29.934Z,22.06
2018-06-09T06:21:30.189Z,22.05
2018-06-09T06:22:29.983Z,22.04
2018-06-09T06:23:30.187Z,22.05
2018-06-09T06:24:29.997Z,22.05
2018-06-09T06:25:30.145Z,22.06
2018-06-09T06:26:30.082Z,22.06
2018-06-09T06:27:30.058Z,22.05
2018-06-09T06:28:30.103Z,22.06
2018-06-09T06:29:29.843Z,22.04
2018-06-09T06:30:29.888Z,22.06
2018-06-09T06:31:29.850Z,22.05
2018-06-09T06:32:29.890Z,22.06
2018-06-09T06:33:30.145Z,22.04
2018-06-09T06:34:29.904Z,22.04
2018-06-09T06:35:30.134Z,22.05
2018-06-09T06:36:29.956Z,22.02
2018-06-09T06:37:30.087Z,22.05
2018-06-09T06:38:29.977Z,22.08
2018-06-09T06:39:30.081Z,22.02
2018-06-09T06:40:29.966Z,22.05
2018-06-09T06:41:29.857Z,22.04
2018-06-09T06:42:29.840Z,22.05
2018-06-09T06:43:30.003Z,22.05
2018-06-09T06:44:29.901Z,22.06
2018-06-09T06:45:30.062Z,22.05
2018-06-09T06:46:29.934Z,22.04
2018-06-09T06:47:30.051Z,22.05
2018-06-09T06:48:30.039Z,22.04
2018-06-09T06:49:29.958Z,22.06
2018-06-09T06:50:30.018Z,22.04
2018-06-09T06:51:29.899Z,22.05
2018-06-09T06:52:29.969Z,22.04
2018-06-09T06:53:29.892Z,22.04
2018-06-09T06:54:29.979Z,22.04
2018-06-09T06:55:30.117Z,22.04
2018-06-09T06:56:30.013Z,22.04
2018-06-09T06:57:29.830Z,22.04
2018-06-09T06:58:30.116Z,22.04
2018-06-09T06:59:29.911Z,22.04
2018-06-09T07:00:29.925Z,22.04
2018-06-09T07:01:29.953Z,22.05
2018-06-09T07:02:29.857Z,22.02
2018-06-09T07:03:29.959Z,22.04
2018-06-09T07:04:29.944Z,22.04
2018-06-09T07:05:29.964Z,22.04
2018-06-09T07:06:30.324Z,22.02
2018-06-09T07:07:30.090Z,22.04
2018-06-09T07:08:30.160Z,22.05
2018-06-09T07:09:29.969Z,22.05
2018-06-09T07:10:30.023Z,22.04
2018-06-09T07:11:29.951Z,22.04
2018-06-09T07:12:29.893Z,22.04
2018-06-09T07:13:30.357Z,22.02
2018-06-09T07:14:29.977Z,22.04
2018-06-09T07:15:30.047Z,22.05
2018-06-09T07:16:29.989Z,22.04
2018-06-09T07:17:30.086Z,22.04
2018-06-09T07:18:29.872Z,22.02
2018-06-09T07:19:30.008Z,22.04
2018-06-09T07:20:30.135Z,22.04
2018-06-09T07:21:30.085Z,22.05
2018-06-09T07:22:29.991Z,22.01
2018-06-09T07:23:29.990Z,22.02
2018-06-09T07:24:29.892Z,22.04
2018-06-09T07:25:30.148Z,22.05
2018-06-09T07:26:29.952Z,22.01
2018-06-09T07:27:30.045Z,22.04
2018-06-09T07:28:30.053Z,22.05
2018-06-09T07:29:30.021Z,22.04
2018-06-09T07:30:29.841Z,22.05
2018-06-09T07:31:29.869Z,22.05
2018-06-09T07:32:29.936Z,22.04
2018-06-09T07:33:29.913Z,21.99
2018-06-09T07:34:29.955Z,21.99
2018-06-09T07:35:30.094Z,22.02
2018-06-09T07:36:30.129Z,22.02
2018-06-09T07:37:29.943Z,22.01
2018-06-09T07:38:30.345Z,22.02
2018-06-09T07:39:30.262Z,22.04
2018-06-09T07:40:30.001Z,22.04
2018-06-09T07:41:30.071Z,22.04
2018-06-09T07:42:29.887Z,22.01
2018-06-09T07:43:29.903Z,22.04
2018-06-09T07:44:30.189Z,22.04
2018-06-09T07:45:30.018Z,22.01
2018-06-09T07:46:29.947Z,22.04
2018-06-09T07:47:30.008Z,22.05
2018-06-09T07:48:29.936Z,22.04
2018-06-09T07:49:30.111Z,22.05
2018-06-09T07:50:29.871Z,22.04
2018-06-09T07:51:29.828Z,22.02
2018-06-09T07:52:29.937Z,22.02
2018-06-09T07:53:29.940Z,22.05
2018-06-09T07:54:29.984Z,22.04
2018-06-09T07:55:29.975Z,22.02
2018-06-09T07:56:30.086Z,22.04
2018-06-09T07:57:29.935Z,22.04
2018-06-09T07:58:29.987Z,22.02
2018-06-09T07:59:30.230Z,22.02
2018-06-09T08:00:29.872Z,22.01
2018-06-09T08:01:29.990Z,22.04
2018-06-09T08:02:29.959Z,22.02
2018-06-09T08:03:29.838Z,22.02
2018-06-09T08:04:30.078Z,22.04
2018-06-09T08:05:30.049Z,22.01
2018-06-09T08:06:29.882Z,22.04
2018-06-09T08:07:29.956Z,21.99
2018-06-09T08:08:29.933Z,22.02
2018-06-09T08:09:29.980Z,22.04
2018-06-09T08:10:30.098Z,22.04
2018-06-09T08:11:30.060Z,22.01
2018-06-09T08:12:29.971Z,22.02
2018-06-09T08:13:30.167Z,22.05
2018-06-09T08:14:30.220Z,22.06
2018-06-09T08:15:30.055Z,22.06
2018-06-09T08:16:29.931Z,22.08
2018-06-09T08:17:29.928Z,22.08
2018-06-09T08:18:29.994Z,22.08
2018-06-09T08:19:30.684Z,22.08
2018-06-09T08:20:29.829Z,22.08
2018-06-09T08:21:30.108Z,22.09
2018-06-09T08:22:29.987Z,22.08
2018-06-09T08:23:29.932Z,22.09
2018-06-09T08:24:30.281Z,22.11
2018-06-09T08:25:29.929Z,22.15
2018-06-09T08:26:30.000Z,22.18
2018-06-09T08:27:30.081Z,22.18
2018-06-09T08:28:29.971Z,22.18
2018-06-09T08:29:29.843Z,22.18
2018-06-09T08:30:30.040Z,22.22
2018-06-09T08:31:30.079Z,22.23
2018-06-09T08:32:30.073Z,22.28
2018-06-09T08:33:30.037Z,22.26
2018-06-09T08:34:30.197Z,22.29
2018-06-09T08:35:30.061Z,22.29
2018-06-09T08:36:30.289Z,22.3
2018-06-09T08:37:30.094Z,22.32
2018-06-09T08:38:30.672Z,22.32
2018-06-09T08:39:29.952Z,22.32
2018-06-09T08:40:29.907Z,22.35
2018-06-09T08:41:29.953Z,22.35
2018-06-09T08:42:29.901Z,22.35
2018-06-09T08:43:30.119Z,22.35
2018-06-09T08:44:29.935Z,22.38
2018-06-09T08:45:30.066Z,22.36
2018-06-09T08:46:29.960Z,22.38
2018-06-09T08:47:30.057Z,22.39
2018-06-09T08:48:29.870Z,22.4
2018-06-09T08:49:29.780Z,22.4
2018-06-09T08:50:29.885Z,22.42
2018-06-09T08:51:30.053Z,22.42
2018-06-09T08:52:29.974Z,22.43
2018-06-09T08:53:30.102Z,22.43
2018-06-09T08:54:30.156Z,22.43
2018-06-09T08:55:30.052Z,22.43
2018-06-09T08:56:29.858Z,22.43
2018-06-09T08:57:29.930Z,22.42
2018-06-09T08:58:29.880Z,22.44
2018-06-09T08:59:29.990Z,22.46
2018-06-09T09:00:30.074Z,22.47
2018-06-09T09:01:30.326Z,22.46
2018-06-09T09:02:29.855Z,22.47
2018-06-09T09:03:30.052Z,22.46
2018-06-09T09:04:30.090Z,22.46
2018-06-09T09:05:29.974Z,22.44
2018-06-09T09:06:29.891Z,22.46
2018-06-09T09:07:29.840Z,22.46
2018-06-09T09:08:29.932Z,22.46
2018-06-09T09:09:30.007Z,22.46
2018-06-09T09:10:29.884Z,22.49
2018-06-09T09:11:29.940Z,22.47
2018-06-09T09:12:29.978Z,22.5
2018-06-09T09:13:29.860Z,22.51
2018-06-09T09:14:29.796Z,22.5
2018-06-09T09:15:30.087Z,22.51
2018-06-09T09:16:30.383Z,22.51
2018-06-09T09:17:29.936Z,22.51
2018-06-09T09:18:29.905Z,22.5
2018-06-09T09:19:30.010Z,22.5
2018-06-09T09:20:30.106Z,22.51
2018-06-09T09:21:29.888Z,22.5
2018-06-09T09:22:29.958Z,22.5
2018-06-09T09:23:30.095Z,22.5
2018-06-09T09:24:29.986Z,22.5
2018-06-09T09:25:30.203Z,22.54
2018-06-09T09:26:29.842Z,22.51
2018-06-09T09:27:29.849Z,22.51
2018-06-09T09:28:29.922Z,22.53
2018-06-09T09:29:29.837Z,22.54
2018-06-09T09:30:30.002Z,22.56
2018-06-09T09:31:30.131Z,22.56
2018-06-09T09:32:29.912Z,22.56
2018-06-09T09:33:30.068Z,22.56
2018-06-09T09:34:30.024Z,22.56
2018-06-09T09:35:29.936Z,22.57
2018-06-09T09:36:30.057Z,22.59
2018-06-09T09:37:29.804Z,22.56
2018-06-09T09:38:30.015Z,22.57
2018-06-09T09:39:29.887Z,22.59
2018-06-09T09:40:30.185Z,22.56
2018-06-09T09:41:30.092Z,22.57
2018-06-09T09:42:29.856Z,22.6
2018-06-09T09:43:29.908Z,22.57
2018-06-09T09:44:29.992Z,22.57
2018-06-09T09:45:30.154Z,22.57
2018-06-09T09:46:29.828Z,22.59
2018-06-09T09:47:29.778Z,22.59
2018-06-09T09:48:30.042Z,22.59
2018-06-09T09:49:29.890Z,22.6
2018-06-09T09:50:30.115Z,22.59
2018-06-09T09:51:29.975Z,22.62
2018-06-09T09:52:29.938Z,22.6
2018-06-09T09:53:29.945Z,22.59
2018-06-09T09:54:30.082Z,22.6
2018-06-09T09:55:29.939Z,22.62
2018-06-09T09:56:29.807Z,22.62
2018-06-09T09:57:29.876Z,22.63
2018-06-09T09:58:30.122Z,22.63
2018-06-09T09:59:30.029Z,22.62
2018-06-09T10:00:30.068Z,22.62
2018-06-09T10:01:29.992Z,22.62
2018-06-09T10:02:29.829Z,22.63
2018-06-09T10:03:30.009Z,22.62
2018-06-09T10:04:29.940Z,22.64
2018-06-09T10:05:29.825Z,22.64
2018-06-09T10:06:30.275Z,22.64
2018-06-09T10:07:29.908Z,22.64
2018-06-09T10:08:29.919Z,22.64
2018-06-09T10:09:29.880Z,22.66
2018-06-09T10:10:30.011Z,22.68
2018-06-09T10:11:29.996Z,22.67
2018-06-09T10:12:29.880Z,22.67
2018-06-09T10:13:29.947Z,22.64
2018-06-09T10:14:30.310Z,22.66
2018-06-09T10:15:29.874Z,22.64
2018-06-09T10:16:29.822Z,22.66
2018-06-09T10:17:30.023Z,22.66
2018-06-09T10:18:29.824Z,22.68
2018-06-09T10:19:29.864Z,22.67
2018-06-09T10:20:29.765Z,22.67
2018-06-09T10:21:29.883Z,22.66
2018-06-09T10:22:29.890Z,22.68
2018-06-09T10:23:29.925Z,22.67
2018-06-09T10:24:29.920Z,22.68
2018-06-09T10:25:29.860Z,22.68
2018-06-09T10:26:29.910Z,22.68
2018-06-09T10:27:29.764Z,22.68
2018-06-09T10:28:29.826Z,22.7
2018-06-09T10:29:29.870Z,22.7
2018-06-09T10:30:29.878Z,22.68
2018-06-09T10:31:29.916Z,22.71
2018-06-09T10:32:29.870Z,22.68
2018-06-09T10:33:30.041Z,22.66
2018-06-09T10:34:30.148Z,22.66
2018-06-09T10:35:29.923Z,22.64
2018-06-09T10:36:30.080Z,22.63
2018-06-09T10:37:29.964Z,22.6
2018-06-09T10:38:29.728Z,22.64
2018-06-09T10:39:29.920Z,22.64
2018-06-09T10:40:30.280Z,22.6
2018-06-09T10:41:30.102Z,22.62
2018-06-09T10:42:29.994Z,22.59
2018-06-09T10:43:29.959Z,22.62
2018-06-09T10:44:29.996Z,22.63
2018-06-09T10:45:29.994Z,22.62
2018-06-09T10:46:29.959Z,22.59
2018-06-09T10:47:30.085Z,22.6
2018-06-09T10:48:29.766Z,22.59
2018-06-09T10:49:29.805Z,22.57
2018-06-09T10:50:29.835Z,22.59
2018-06-09T10:51:29.921Z,22.56
2018-06-09T10:52:30.062Z,22.56
2018-06-09T10:53:30.034Z,22.56
2018-06-09T10:54:29.808Z,22.56
2018-06-09T10:55:29.765Z,22.56
2018-06-09T10:56:29.804Z,22.56
2018-06-09T10:57:33.619Z,22.54
2018-06-09T10:58:29.992Z,22.53
2018-06-09T10:59:29.811Z,22.54
2018-06-09T11:00:29.836Z,22.51
2018-06-09T11:01:29.980Z,22.51
2018-06-09T11:02:30.079Z,22.51
2018-06-09T11:03:30.085Z,22.5
2018-06-09T11:04:30.081Z,22.47
2018-06-09T11:05:29.900Z,22.44
2018-06-09T11:06:30.049Z,22.44
2018-06-09T11:07:30.208Z,22.43
2018-06-09T11:08:29.941Z,22.44
2018-06-09T11:09:29.776Z,22.4
2018-06-09T11:10:30.096Z,22.39
2018-06-09T11:11:29.865Z,22.42
2018-06-09T11:12:29.954Z,22.4
2018-06-09T11:13:29.907Z,22.4
2018-06-09T11:14:29.803Z,22.4
2018-06-09T11:15:30.389Z,22.4
2018-06-09T11:16:29.987Z,22.4
2018-06-09T11:17:30.253Z,22.4
2018-06-09T11:18:29.919Z,22.4
2018-06-09T11:19:29.821Z,22.4
2018-06-09T11:20:29.977Z,22.42
2018-06-09T11:21:30.069Z,22.42
2018-06-09T11:22:29.824Z,22.39
2018-06-09T11:23:29.834Z,22.38
2018-06-09T11:24:30.797Z,22.36
2018-06-09T11:25:30.063Z,22.38
2018-06-09T11:26:29.945Z,22.36
2018-06-09T11:27:29.840Z,22.38
2018-06-09T11:28:29.817Z,22.35
2018-06-09T11:29:29.957Z,22.36
2018-06-09T11:30:29.910Z,22.38
2018-06-09T11:31:29.787Z,22.35
2018-06-09T11:32:29.848Z,22.38
2018-06-09T11:33:29.846Z,22.36
2018-06-09T11:34:29.895Z,22.33
2018-06-09T11:35:29.839Z,22.36
2018-06-09T11:36:29.789Z,22.36
2018-06-09T11:37:29.991Z,22.35
2018-06-09T11:38:29.933Z,22.32
2018-06-09T11:39:29.942Z,22.32
2018-06-09T11:40:29.834Z,22.35
2018-06-09T11:41:30.042Z,22.32
2018-06-09T11:42:29.832Z,22.35
2018-06-09T11:43:30.110Z,22.32
2018-06-09T11:44:29.975Z,22.33
2018-06-09T11:45:29.846Z,22.32
2018-06-09T11:46:29.964Z,22.29
2018-06-09T11:47:29.965Z,22.32
2018-06-09T11:48:29.891Z,22.29
2018-06-09T11:49:29.875Z,22.32
2018-06-09T11:50:29.941Z,22.32
2018-06-09T11:51:29.953Z,22.29
2018-06-09T11:52:29.872Z,22.3
2018-06-09T11:53:29.901Z,22.3
2018-06-09T11:54:30.035Z,22.28
2018-06-09T11:55:29.898Z,22.29
2018-06-09T11:56:29.985Z,22.3
2018-06-09T11:57:29.786Z,22.29
2018-06-09T11:58:30.010Z,22.29
2018-06-09T11:59:30.019Z,22.3
2018-06-09T12:00:29.956Z,22.3
2018-06-09T12:01:29.893Z,22.29
2018-06-09T12:02:29.791Z,22.29
2018-06-09T12:03:29.845Z,22.29
2018-06-09T12:04:30.088Z,22.29
2018-06-09T12:05:29.916Z,22.28
2018-06-09T12:06:29.954Z,22.28
2018-06-09T12:07:29.902Z,22.28
2018-06-09T12:08:29.891Z,22.29
2018-06-09T12:09:29.923Z,22.28
2018-06-09T12:10:30.120Z,22.28
2018-06-09T12:11:29.986Z,22.26
2018-06-09T12:12:29.849Z,22.26
2018-06-09T12:13:29.886Z,22.23
2018-06-09T12:14:29.873Z,22.23
2018-06-09T12:15:29.930Z,22.28
2018-06-09T12:16:29.987Z,22.26
2018-06-09T12:17:30.148Z,22.26
2018-06-09T12:18:29.852Z,22.26
2018-06-09T12:19:30.073Z,22.25
2018-06-09T12:20:29.952Z,22.25
2018-06-09T12:21:29.891Z,22.28
2018-06-09T12:22:39.872Z,22.25
2018-06-09T12:23:30.000Z,22.25
2018-06-09T12:24:29.988Z,22.25
2018-06-09T12:25:30.096Z,22.25
2018-06-09T12:26:30.188Z,22.23
2018-06-09T12:27:29.923Z,22.28
2018-06-09T12:28:29.990Z,22.29
2018-06-09T12:29:29.935Z,22.3
2018-06-09T12:30:30.066Z,22.33
2018-06-09T12:31:30.021Z,22.35
2018-06-09T12:32:30.317Z,22.35
2018-06-09T12:33:29.975Z,22.4
2018-06-09T12:34:29.919Z,22.4
2018-06-09T12:35:29.949Z,22.43
2018-06-09T12:36:29.845Z,22.42
2018-06-09T12:37:29.935Z,22.44
2018-06-09T12:38:30.163Z,22.46
2018-06-09T12:39:30.048Z,22.47
2018-06-09T12:40:29.957Z,22.47
2018-06-09T12:41:53.399Z,22.51
2018-06-09T12:42:53.535Z,22.56
2018-06-09T12:43:53.524Z,22.53
2018-06-09T12:44:53.429Z,22.51
2018-06-09T12:45:53.310Z,22.56
2018-06-09T12:46:53.486Z,22.57
2018-06-09T12:47:53.405Z,22.59
2018-06-09T12:48:53.470Z,22.6
2018-06-09T12:49:53.487Z,22.62
2018-06-09T12:50:53.185Z,22.62
2018-06-09T12:51:53.397Z,22.62
2018-06-09T12:52:53.471Z,22.63
2018-06-09T12:53:53.388Z,22.63